createdAt,value
2022-11-25T00:03:04.618Z,-0.22
2022-11-25T00:05:58.326Z,-0.13
2022-11-25T00:08:55.885Z,-0.09
2022-11-25T00:11:25.920Z,-0.06
2022-11-25T00:14:23.260Z,-0.03
2022-11-25T00:16:50.163Z,-0.06
2022-11-25T00:19:16.927Z,0.04
2022-11-25T00:21:56.368Z,0.08
2022-11-25T00:24:25.633Z,0.10
2022-11-25T00:26:59.697Z,0.11
2022-11-25T00:29:26.295Z,0.17
2022-11-25T00:31:54.510Z,0.21
2022-11-25T00:34:21.127Z,0.24
2022-11-25T00:36:53.557Z,0.28
2022-11-25T00:39:28.724Z,0.31
2022-11-25T00:42:13.871Z,0.34
2022-11-25T00:44:49.977Z,0.39
2022-11-25T00:47:22.314Z,0.41
2022-11-25T00:49:54.831Z,0.42
2022-11-25T00:52:23.683Z,0.45
2022-11-25T00:54:52.818Z,0.47
2022-11-25T00:57:22.614Z,0.49
2022-11-25T00:59:55.288Z,0.51
2022-11-25T01:02:22.827Z,0.53
2022-11-25T01:04:53.979Z,0.54
2022-11-25T01:07:21.051Z,0.56
2022-11-25T01:09:52.178Z,0.58
2022-11-25T01:12:19.869Z,0.59
2022-11-25T01:15:11.692Z,0.61
2022-11-25T01:18:00.087Z,0.59
2022-11-25T01:20:26.656Z,0.57
2022-11-25T01:22:59.587Z,0.59
2022-11-25T01:26:20.813Z,0.61
2022-11-25T01:28:57.801Z,0.55
2022-11-25T01:35:00.832Z,0.62
2022-11-25T01:37:27.584Z,0.61
2022-11-25T01:39:59.370Z,0.59
2022-11-25T01:42:30.333Z,0.62
2022-11-25T01:45:18.903Z,0.64
2022-11-25T01:48:13.711Z,0.66
2022-11-25T01:50:53.503Z,0.65
2022-11-25T01:53:22.019Z,0.66
2022-11-25T01:55:58.519Z,0.70
2022-11-25T01:58:31.132Z,0.70
2022-11-25T02:01:09.978Z,0.70
2022-11-25T02:04:03.800Z,0.76
2022-11-25T02:06:57.807Z,0.77
2022-11-25T02:09:25.167Z,0.80
2022-11-25T02:11:58.091Z,0.76
2022-11-25T02:14:26.374Z,0.80
2022-11-25T02:16:55.551Z,0.82
2022-11-25T02:19:57.299Z,0.83
2022-11-25T02:23:11.416Z,0.83
2022-11-25T02:26:27.772Z,0.82
2022-11-25T02:28:55.802Z,0.82
2022-11-25T02:31:23.802Z,0.82
2022-11-25T02:34:01.495Z,0.76
2022-11-25T02:36:30.591Z,0.77
2022-11-25T02:39:00.760Z,0.78
2022-11-25T02:41:56.122Z,0.80
2022-11-25T02:44:22.805Z,0.78
2022-11-25T02:46:50.396Z,0.80
2022-11-25T02:49:20.772Z,0.80
2022-11-25T02:52:04.444Z,0.76
2022-11-25T02:54:31.240Z,0.78
2022-11-25T02:57:17.789Z,0.76
2022-11-25T03:00:10.201Z,0.76
2022-11-25T03:02:54.485Z,0.75
2022-11-25T03:05:22.598Z,0.73
2022-11-25T03:08:25.277Z,0.72
2022-11-25T03:10:57.998Z,0.67
2022-11-25T03:13:25.674Z,0.70
2022-11-25T03:15:52.945Z,0.68
2022-11-25T03:22:08.724Z,0.66
2022-11-25T03:24:55.141Z,0.60
2022-11-25T03:27:22.229Z,0.64
2022-11-25T03:29:56.106Z,0.59
2022-11-25T03:32:23.111Z,0.59
2022-11-25T03:34:49.695Z,0.60
2022-11-25T03:37:16.738Z,0.63
2022-11-25T03:39:55.985Z,0.61
2022-11-25T03:42:24.023Z,0.59
2022-11-25T03:44:52.932Z,0.56
2022-11-25T03:47:19.671Z,0.54
2022-11-25T03:49:53.874Z,0.56
2022-11-25T03:52:20.693Z,0.52
2022-11-25T03:54:52.856Z,0.48
2022-11-25T03:57:21.916Z,0.45
2022-11-25T04:00:00.626Z,0.41
2022-11-25T04:02:27.709Z,0.45
2022-11-25T04:05:00.680Z,0.44
2022-11-25T04:07:27.790Z,0.42
2022-11-25T04:09:56.217Z,0.42
2022-11-25T04:12:46.167Z,0.40
2022-11-25T04:15:19.657Z,0.39
2022-11-25T04:17:54.380Z,0.39
2022-11-25T04:20:21.378Z,0.36
2022-11-25T04:22:55.104Z,0.35
2022-11-25T04:25:22.681Z,0.33
2022-11-25T04:27:59.524Z,0.30
2022-11-25T04:33:20.435Z,0.24
2022-11-25T04:36:13.750Z,0.27
2022-11-25T04:38:49.960Z,0.23
2022-11-25T04:41:19.119Z,0.22
2022-11-25T04:44:03.501Z,0.23
2022-11-25T04:46:51.898Z,0.17
2022-11-25T04:49:19.356Z,0.23
2022-11-25T04:52:11.246Z,0.17
2022-11-25T04:54:55.976Z,0.13
2022-11-25T04:57:23.424Z,0.14
2022-11-25T04:59:56.562Z,0.15
2022-11-25T05:02:26.514Z,0.14
2022-11-25T05:05:13.834Z,0.14
2022-11-25T05:08:05.429Z,0.13
2022-11-25T05:10:33.556Z,0.09
2022-11-25T05:13:18.012Z,0.09
2022-11-25T05:15:50.749Z,0.07
2022-11-25T05:18:19.546Z,0.03
2022-11-25T05:20:51.101Z,0.03
2022-11-25T05:23:20.738Z,-0.06
2022-11-25T05:25:51.381Z,-0.04
2022-11-25T05:28:27.641Z,-0.10
2022-11-25T05:31:03.668Z,-0.10
2022-11-25T05:33:30.667Z,-0.11
2022-11-25T05:36:00.293Z,-0.13
2022-11-25T05:38:56.192Z,-0.13
2022-11-25T05:41:31.329Z,-0.10
2022-11-25T05:43:59.503Z,-0.11
2022-11-25T05:46:26.234Z,-0.09
2022-11-25T05:48:56.154Z,-0.07
2022-11-25T05:51:24.290Z,-0.04
2022-11-25T05:54:17.883Z,-0.02
2022-11-25T05:56:54.539Z,0.00
2022-11-25T06:00:06.526Z,0.05
2022-11-25T06:02:51.683Z,0.08
2022-11-25T06:05:19.785Z,0.09
2022-11-25T06:07:55.709Z,0.08
2022-11-25T06:10:29.056Z,0.02
2022-11-25T06:12:56.158Z,0.06
2022-11-25T06:15:24.362Z,0.04
2022-11-25T06:17:59.478Z,0.05
2022-11-25T06:20:28.232Z,0.07
2022-11-25T06:22:55.763Z,0.10
2022-11-25T06:26:21.768Z,0.15
2022-11-25T06:28:56.432Z,0.15
2022-11-25T06:31:25.954Z,0.19
2022-11-25T06:34:11.739Z,0.20
2022-11-25T06:40:05.500Z,0.34
2022-11-25T06:42:53.033Z,0.35
2022-11-25T06:45:19.840Z,0.34
2022-11-25T06:47:58.966Z,0.40
2022-11-25T06:50:25.647Z,0.45
2022-11-25T06:52:52.242Z,0.49
2022-11-25T06:55:24.665Z,0.50
2022-11-25T06:58:28.366Z,0.54
2022-11-25T07:00:55.036Z,0.53
2022-11-25T07:03:31.060Z,0.51
2022-11-25T07:06:07.686Z,0.55
2022-11-25T07:12:18.379Z,0.62
2022-11-25T07:14:53.076Z,0.57
2022-11-25T07:17:25.578Z,0.57
2022-11-25T07:19:55.575Z,0.58
2022-11-25T07:22:23.032Z,0.63
2022-11-25T07:24:53.729Z,0.68
2022-11-25T07:27:28.224Z,0.71
2022-11-25T07:34:20.587Z,0.78
2022-11-25T07:40:33.412Z,0.94
2022-11-25T07:42:59.953Z,1.02
2022-11-25T07:45:27.857Z,1.09
2022-11-25T07:48:20.811Z,1.13
2022-11-25T07:50:53.541Z,1.19
2022-11-25T07:53:21.112Z,1.24
2022-11-25T07:56:04.048Z,1.25
2022-11-25T07:58:30.646Z,1.28
2022-11-25T08:00:59.503Z,1.27
2022-11-25T08:03:26.151Z,1.38
2022-11-25T08:06:28.151Z,1.41
2022-11-25T08:09:18.816Z,1.48
2022-11-25T08:11:54.627Z,1.51
2022-11-25T08:14:21.284Z,1.58
2022-11-25T08:16:51.304Z,1.59
2022-11-25T08:20:08.896Z,1.64
2022-11-25T08:22:57.894Z,1.68
2022-11-25T08:25:59.873Z,1.74
2022-11-25T08:28:26.671Z,1.71
2022-11-25T08:31:01.389Z,1.78
2022-11-25T08:33:31.142Z,1.81
2022-11-25T08:36:07.180Z,1.85
2022-11-25T08:38:34.697Z,1.96
2022-11-25T08:41:01.212Z,2.01
2022-11-25T08:43:29.681Z,2.03
2022-11-25T08:47:01.301Z,2.01
2022-11-25T08:49:31.177Z,2.07
2022-11-25T08:52:24.055Z,2.20
2022-11-25T08:59:00.533Z,2.37
2022-11-25T09:21:12.163Z,3.18
2022-11-25T09:37:16.095Z,3.58
2022-11-25T09:53:14.935Z,3.84
2022-11-25T10:15:05.598Z,4.25
2022-11-25T10:30:13.830Z,4.35
2022-11-25T10:33:28.927Z,4.38
2022-11-25T10:36:34.903Z,4.31
2022-11-25T10:39:13.676Z,4.35
2022-11-25T10:41:59.612Z,4.40
2022-11-25T10:48:13.765Z,4.47
2022-11-25T11:08:51.554Z,4.60
2022-11-25T11:11:21.190Z,4.64
2022-11-25T11:14:14.165Z,4.71
2022-11-25T11:16:53.971Z,4.73
2022-11-25T11:19:24.065Z,4.76
2022-11-25T11:22:20.808Z,4.78
2022-11-25T11:25:21.704Z,4.80
2022-11-25T11:28:24.398Z,4.84
2022-11-25T11:31:01.778Z,4.86
2022-11-25T11:39:09.428Z,4.91
2022-11-25T11:42:26.118Z,4.93
2022-11-25T11:45:29.929Z,4.97
2022-11-25T11:48:07.930Z,5.01
2022-11-25T11:50:57.590Z,5.07
2022-11-25T11:53:25.924Z,5.09
2022-11-25T11:56:35.254Z,5.10
2022-11-25T12:00:15.509Z,5.08
2022-11-25T12:06:59.849Z,5.12
2022-11-25T12:09:32.930Z,5.14
2022-11-25T12:12:32.750Z,5.19
2022-11-25T12:15:29.393Z,5.18
2022-11-25T12:26:16.180Z,5.26
2022-11-25T12:33:27.784Z,5.31
2022-11-25T12:36:55.965Z,5.31
2022-11-25T12:40:05.817Z,5.33
2022-11-25T13:18:55.286Z,5.75
2022-11-25T13:21:25.131Z,5.76
2022-11-25T13:24:30.148Z,5.81
2022-11-25T13:27:01.709Z,5.82
2022-11-25T13:29:30.328Z,5.86
2022-11-25T13:32:36.852Z,5.88
2022-11-25T13:35:36.408Z,5.87
2022-11-25T13:38:30.165Z,5.88
2022-11-25T13:41:15.739Z,5.87
2022-11-25T13:44:35.127Z,5.90
2022-11-25T13:47:31.022Z,5.91
2022-11-25T13:51:12.986Z,5.93
2022-11-25T13:54:04.690Z,5.89
2022-11-25T13:56:35.576Z,5.93
2022-11-25T13:59:11.964Z,5.96
2022-11-25T14:02:18.763Z,5.96
2022-11-25T14:05:20.918Z,5.98
2022-11-25T14:08:08.226Z,5.99
2022-11-25T14:11:03.554Z,5.98
2022-11-25T14:14:07.821Z,6.01
2022-11-25T14:16:55.169Z,6.01
2022-11-25T14:20:13.206Z,6.00
2022-11-25T14:23:22.705Z,6.02
2022-11-25T14:27:03.282Z,6.02
2022-11-25T14:29:33.194Z,6.03
2022-11-25T14:32:20.081Z,6.04
2022-11-25T14:35:20.432Z,6.05
2022-11-25T14:38:08.073Z,6.03
2022-11-25T14:41:07.442Z,6.07
2022-11-25T14:44:24.462Z,6.04
2022-11-25T14:47:04.761Z,6.05
2022-11-25T14:50:33.715Z,6.09
2022-11-25T14:53:05.091Z,6.04
2022-11-25T14:55:32.131Z,6.07
2022-11-25T14:58:12.864Z,6.07
2022-11-25T15:01:16.769Z,6.07
2022-11-25T15:04:33.956Z,6.06
2022-11-25T15:07:24.050Z,6.04
2022-11-25T15:10:30.001Z,6.03
2022-11-25T15:13:16.018Z,6.02
2022-11-25T15:16:23.341Z,6.03
2022-11-25T15:20:11.352Z,6.02
2022-11-25T15:23:02.021Z,5.98
2022-11-25T15:25:28.389Z,5.97
2022-11-25T15:27:59.774Z,5.96
2022-11-25T15:30:38.037Z,5.96
2022-11-25T15:33:05.752Z,5.94
2022-11-25T15:35:34.045Z,5.95
2022-11-25T15:41:33.895Z,5.95
2022-11-25T15:44:39.474Z,5.94
2022-11-25T15:47:25.916Z,5.95
2022-11-25T15:50:11.892Z,5.93
2022-11-25T16:01:16.231Z,5.83
2022-11-25T16:07:24.785Z,5.87
2022-11-25T16:10:01.727Z,5.85
2022-11-25T16:12:38.669Z,5.85
2022-11-25T16:15:16.842Z,5.85
2022-11-25T16:18:38.569Z,5.86
2022-11-25T16:21:08.292Z,5.85
2022-11-25T16:24:01.517Z,5.85
2022-11-25T16:26:34.347Z,5.86
2022-11-25T16:29:08.767Z,5.83
2022-11-25T16:31:35.929Z,5.86
2022-11-25T16:34:19.228Z,5.86
2022-11-25T16:37:00.091Z,5.87
2022-11-25T16:39:26.895Z,5.86
2022-11-25T16:42:04.064Z,5.88
2022-11-25T16:44:34.342Z,5.92
2022-11-25T16:47:02.029Z,5.91
2022-11-25T16:49:30.482Z,5.93
2022-11-25T16:52:03.432Z,5.93
2022-11-25T16:54:31.590Z,5.93
2022-11-25T16:57:00.041Z,5.93
2022-11-25T16:59:33.861Z,5.94
2022-11-25T17:02:13.724Z,5.93
2022-11-25T17:04:40.318Z,5.94
2022-11-25T17:07:35.710Z,5.93
2022-11-25T17:10:04.263Z,5.92
2022-11-25T17:12:38.086Z,5.91
2022-11-25T17:15:11.965Z,5.89
2022-11-25T17:20:26.470Z,5.84
2022-11-25T17:23:10.537Z,5.92
2022-11-25T17:26:29.415Z,5.90
2022-11-25T17:29:05.473Z,5.85
2022-11-25T22:13:35.158Z,6.24
2022-11-25T22:23:30.248Z,6.20
2022-11-25T22:33:26.813Z,6.04
2022-11-25T22:40:36.185Z,6.05
2022-11-25T22:53:36.712Z,5.77
2022-11-25T22:58:31.161Z,5.79
2022-11-25T22:59:41.755Z,5.71
2022-11-25T23:10:18.932Z,5.51
2022-11-25T23:24:36.547Z,5.06
2022-11-25T23:31:35.215Z,4.99
2022-11-25T23:37:33.397Z,4.85
2022-11-25T23:40:30.377Z,4.79
2022-11-25T23:50:40.829Z,4.49
2022-11-25T23:57:30.726Z,4.42
